Time;durP1;ratioP1;P1;durP2;ratioP2;P2;SDS_P1;SDS_P2;PMS_P1;PMS_P2;Temp;Humidity;BMP_temperature;BMP_pressure;BME280_temperature;BME280_humidity;BME280_pressure;Samples;Min_cycle;Max_cycle;Signal;HPM_P1;HPM_P2
2022/08/22 00:02:12;;;;;;;18.05;16.63;;;12.00;99.90;;;;;;5070758;28;20135;-77
2022/08/22 00:04:46;;;;;;;18.50;17.15;;;12.00;99.90;;;;;;5073295;28;20039;-76
2022/08/22 00:07:31;;;;;;;19.27;18.00;;;12.00;99.90;;;;;;5081277;28;20430;-76
2022/08/22 00:10:01;;;;;;;;;;;12.00;99.90;;;;;;5076683;28;20045;-76
2022/08/22 00:12:35;;;;;;;18.20;16.67;;;12.00;99.90;;;;;;5057865;28;19920;-77
2022/08/22 00:15:11;;;;;;;18.20;16.77;;;12.00;99.90;;;;;;5050456;28;20071;-76
2022/08/22 00:18:12;;;;;;;19.15;17.63;;;11.90;99.90;;;;;;5062670;28;20072;-77
2022/08/22 00:21:19;;;;;;;19.90;17.70;;;12.10;99.90;;;;;;5036912;28;20052;-76
2022/08/22 00:24:09;;;;;;;18.05;16.85;;;11.80;99.90;;;;;;5017482;28;20054;-76
2022/08/22 00:26:50;;;;;;;17.85;16.65;;;11.80;99.90;;;;;;5064493;28;20047;-77
2022/08/22 00:29:23;;;;;;;17.42;16.10;;;11.80;99.90;;;;;;5027508;28;20062;-77
2022/08/22 00:32:02;;;;;;;18.33;16.73;;;11.70;99.90;;;;;;5045867;28;20567;-76
2022/08/22 00:34:38;;;;;;;18.63;17.02;;;11.70;99.90;;;;;;5061326;28;20043;-77
2022/08/22 00:37:29;;;;;;;17.65;16.25;;;11.80;99.90;;;;;;5063324;28;20064;-76
2022/08/22 00:40:21;;;;;;;17.42;16.17;;;11.80;99.90;;;;;;5048008;28;20514;-76
2022/08/22 00:43:09;;;;;;;16.48;15.10;;;11.80;99.90;;;;;;5054302;28;20279;-76
2022/08/22 00:46:14;;;;;;;21.25;17.17;;;11.80;99.90;;;;;;5044885;28;20051;-77
2022/08/22 00:49:22;;;;;;;18.57;16.77;;;11.80;99.90;;;;;;5022876;28;20086;-76
2022/08/22 00:52:38;;;;;;;18.13;16.73;;;11.80;99.90;;;;;;5036865;28;20405;-74
2022/08/22 00:55:19;;;;;;;17.48;15.85;;;11.80;99.90;;;;;;5029417;28;20445;-75
2022/08/22 00:58:09;;;;;;;17.67;16.27;;;11.80;99.90;;;;;;5021348;28;20127;-72
2022/08/22 01:01:00;;;;;;;18.30;16.80;;;11.60;99.90;;;;;;5022430;28;20044;-73
2022/08/22 01:03:53;;;;;;;18.02;16.73;;;11.60;99.90;;;;;;5029777;28;20495;-73
2022/08/22 01:06:35;;;;;;;18.30;17.05;;;11.50;99.90;;;;;;5033309;28;20109;-73
2022/08/22 01:09:12;;;;;;;18.35;17.05;;;11.50;99.90;;;;;;5036488;28;20537;-73
2022/08/22 01:11:51;;;;;;;18.98;17.48;;;11.40;99.90;;;;;;5039596;28;20041;-73
2022/08/22 01:14:51;;;;;;;18.33;16.83;;;11.60;99.90;;;;;;5036822;28;20035;-73
2022/08/22 01:18:06;;;;;;;18.13;16.58;;;11.50;99.90;;;;;;5035277;28;20044;-73
2022/08/22 01:20:42;;;;;;;17.25;15.38;;;11.40;99.90;;;;;;5029100;28;20045;-73
2022/08/22 01:23:37;;;;;;;16.95;15.82;;;11.40;99.90;;;;;;5031504;28;20048;-72
2022/08/22 01:26:53;;;;;;;16.85;15.13;;;11.50;99.90;;;;;;5032215;28;20614;-73
2022/08/22 01:29:55;;;;;;;16.45;15.27;;;11.50;99.90;;;;;;4977873;28;20038;-73
2022/08/22 01:32:36;;;;;;;16.73;15.23;;;11.50;99.90;;;;;;4994918;28;20453;-73
2022/08/22 01:35:21;;;;;;;18.20;16.52;;;11.50;99.90;;;;;;5028511;28;20700;-72
2022/08/22 01:38:22;;;;;;;16.55;15.27;;;11.40;99.90;;;;;;5014856;28;20056;-73
2022/08/22 01:41:28;;;;;;;16.58;15.32;;;11.30;99.90;;;;;;5020372;28;20040;-73
2022/08/22 01:44:24;;;;;;;16.50;15.05;;;11.30;99.90;;;;;;5024442;28;20075;-73
2022/08/22 01:47:04;;;;;;;16.55;15.23;;;11.20;99.90;;;;;;5020595;28;20682;-73
2022/08/22 01:49:43;;;;;;;16.17;14.93;;;11.30;99.90;;;;;;5020040;28;20041;-73
2022/08/22 01:52:35;;;;;;;17.80;16.60;;;11.20;99.90;;;;;;5012153;28;20478;-73
2022/08/22 01:55:27;;;;;;;17.75;16.65;;;11.20;99.90;;;;;;5008594;28;20551;-73
2022/08/22 01:58:00;;;;;;;18.52;17.08;;;11.20;99.90;;;;;;5017677;28;20042;-73
2022/08/22 02:00:32;;;;;;;17.42;16.13;;;11.10;99.90;;;;;;5015516;28;20144;-73
2022/08/22 02:03:16;;;;;;;17.98;16.83;;;11.10;99.90;;;;;;5002998;28;20091;-73
2022/08/22 02:05:50;;;;;;;17.50;16.40;;;11.10;99.90;;;;;;5004081;28;20045;-72
2022/08/22 02:08:20;;;;;;;18.70;17.27;;;11.00;99.90;;;;;;4998566;28;20641;-73
2022/08/22 02:10:53;;;;;;;18.42;17.00;;;11.00;99.90;;;;;;5002627;28;20052;-73
2022/08/22 02:13:28;;;;;;;;;;;11.00;99.90;;;;;;4999909;28;20142;-73
2022/08/22 02:16:21;;;;;;;17.38;16.00;;;11.10;99.90;;;;;;5005841;28;19925;-73
2022/08/22 02:19:12;;;;;;;17.65;16.30;;;11.30;99.90;;;;;;5003436;28;20050;-73
2022/08/22 02:22:16;;;;;;;19.10;16.65;;;11.30;99.90;;;;;;5000242;28;20202;-73
2022/08/22 02:24:52;;;;;;;17.58;16.00;;;11.20;99.90;;;;;;5000833;28;20057;-73
2022/08/22 02:27:56;;;;;;;17.67;16.27;;;11.20;99.90;;;;;;4982909;28;20049;-72
2022/08/22 02:30:53;;;;;;;16.90;15.35;;;11.00;99.90;;;;;;4990511;28;20052;-72
2022/08/22 02:33:41;;;;;;;16.75;15.65;;;11.10;99.90;;;;;;4997870;28;20142;-72
2022/08/22 02:36:33;;;;;;;16.45;14.98;;;11.10;99.90;;;;;;4999603;28;20046;-72
2022/08/22 02:39:30;;;;;;;14.88;13.77;;;11.00;99.90;;;;;;5002568;28;20048;-73
2022/08/22 02:42:36;;;;;;;15.20;14.02;;;11.00;99.90;;;;;;4998843;28;20053;-72
2022/08/22 02:45:14;;;;;;;16.05;14.38;;;10.90;99.90;;;;;;5013599;28;20037;-72
2022/08/22 02:47:55;;;;;;;15.23;14.02;;;10.90;99.90;;;;;;5005282;28;20099;-72
2022/08/22 02:50:48;;;;;;;15.55;14.35;;;10.90;99.90;;;;;;4999799;28;20052;-72
2022/08/22 02:53:26;;;;;;;16.40;15.10;;;10.80;99.90;;;;;;5002456;28;20041;-73
2022/08/22 02:56:18;;;;;;;16.73;15.52;;;10.80;99.90;;;;;;4982087;23;20096;-75
2022/08/22 02:58:57;;;;;;;17.92;16.08;;;10.80;99.90;;;;;;4964515;28;20042;-74
2022/08/22 03:01:28;;;;;;;18.00;15.88;;;10.80;99.90;;;;;;4980991;28;20049;-77
2022/08/22 03:04:20;;;;;;;17.80;16.50;;;10.80;99.90;;;;;;4984382;28;20483;-74
2022/08/22 03:07:31;;;;;;;17.98;16.85;;;10.90;99.90;;;;;;4973859;28;20080;-77
2022/08/22 03:10:25;;;;;;;18.33;16.83;;;10.80;99.90;;;;;;4972789;28;20516;-78
2022/08/22 03:13:05;;;;;;;18.73;17.33;;;10.80;99.90;;;;;;4949477;28;20069;-76
2022/08/22 03:15:39;;;;;;;18.33;17.13;;;10.70;99.90;;;;;;4953335;28;20039;-76
2022/08/22 03:18:20;;;;;;;17.52;16.23;;;10.70;99.90;;;;;;4974456;28;20042;-76
2022/08/22 03:21:12;;;;;;;18.60;16.88;;;10.90;99.90;;;;;;4973948;28;20574;-75
2022/08/22 03:23:55;;;;;;;20.05;18.40;;;10.90;99.90;;;;;;4972042;28;20047;-75
2022/08/22 03:26:29;;;;;;;19.25;17.75;;;10.80;99.90;;;;;;4967435;28;20054;-74
2022/08/22 03:29:03;;;;;;;20.70;18.80;;;10.70;99.90;;;;;;4972516;28;20043;-75
2022/08/22 03:31:31;;;;;;;20.13;18.30;;;10.70;99.90;;;;;;4975584;28;20463;-75
2022/08/22 03:34:25;;;;;;;20.77;18.92;;;10.80;99.90;;;;;;4975462;28;20720;-75
2022/08/22 03:37:01;;;;;;;19.60;18.20;;;10.70;99.90;;;;;;4975393;28;20042;-75
2022/08/22 03:40:00;;;;;;;19.50;18.15;;;10.60;99.90;;;;;;4960121;28;20077;-75
2022/08/22 03:42:50;;;;;;;20.30;18.75;;;10.50;99.90;;;;;;4965554;28;20048;-76
2022/08/22 03:45:37;;;;;;;20.05;18.35;;;10.40;99.90;;;;;;4977187;28;20112;-77
2022/08/22 03:48:44;;;;;;;21.00;19.30;;;10.40;99.90;;;;;;4953015;28;20088;-75
2022/08/22 03:51:51;;;;;;;21.13;19.38;;;10.50;99.90;;;;;;4976762;28;20049;-75
2022/08/22 03:54:25;;;;;;;19.33;17.67;;;10.50;99.90;;;;;;4971252;28;20046;-76
2022/08/22 03:57:23;;;;;;;20.48;18.58;;;10.50;99.90;;;;;;4973811;28;20042;-78
2022/08/22 04:00:11;;;;;;;18.70;17.38;;;10.50;99.90;;;;;;4972372;28;20072;-75
2022/08/22 04:02:50;;;;;;;20.50;18.75;;;10.50;99.90;;;;;;4956228;28;20047;-75
2022/08/22 04:05:20;;;;;;;20.27;18.58;;;10.60;99.90;;;;;;4955090;28;20058;-77
2022/08/22 04:08:19;;;;;;;21.00;18.88;;;10.60;99.90;;;;;;4968311;28;20082;-77
2022/08/22 04:10:55;;;;;;;18.88;17.48;;;10.60;99.90;;;;;;4978310;28;20043;-78
2022/08/22 04:13:27;;;;;;;18.40;17.00;;;10.50;99.90;;;;;;4975346;28;20105;-75
2022/08/22 04:16:25;;;;;;;17.80;16.27;;;10.50;99.90;;;;;;4974073;28;20105;-76
2022/08/22 04:19:40;;;;;;;18.40;16.92;;;10.40;99.90;;;;;;4973309;28;20042;-75
2022/08/22 04:22:48;;;;;;;17.35;15.98;;;10.40;99.90;;;;;;4962082;28;20100;-77
2022/08/22 04:25:28;;;;;;;17.85;16.35;;;10.40;99.90;;;;;;4964977;28;20138;-76
2022/08/22 04:28:09;;;;;;;17.05;15.82;;;10.40;99.90;;;;;;4984913;28;20047;-77
2022/08/22 04:30:39;;;;;;;17.88;16.15;;;10.30;99.90;;;;;;4973001;28;20101;-74
2022/08/22 04:33:20;;;;;;;16.38;15.10;;;10.40;99.90;;;;;;4972743;28;20051;-75
2022/08/22 04:36:17;;;;;;;15.98;14.60;;;10.50;99.90;;;;;;4970512;28;20077;-77
2022/08/22 04:39:17;;;;;;;15.57;14.38;;;10.50;99.90;;;;;;4968077;28;20461;-75
2022/08/22 04:42:15;;;;;;;17.45;15.85;;;10.50;99.90;;;;;;4971029;28;20105;-78
2022/08/22 04:45:04;;;;;;;17.35;15.95;;;10.40;99.90;;;;;;4974684;28;20516;-78
2022/08/22 04:48:05;;;;;;;17.90;16.17;;;10.30;99.90;;;;;;4974389;28;20054;-78
2022/08/22 04:50:47;;;;;;;16.33;15.07;;;10.30;99.90;;;;;;4986518;28;20533;-77
2022/08/22 04:53:38;;;;;;;17.00;15.70;;;10.30;99.90;;;;;;4954468;28;20067;-76
2022/08/22 04:56:11;;;;;;;16.63;15.43;;;10.30;99.90;;;;;;4953368;28;20047;-75
2022/08/22 04:58:56;;;;;;;16.98;15.38;;;10.30;99.90;;;;;;4967739;28;20591;-77
2022/08/22 05:01:43;;;;;;;17.90;16.40;;;10.60;99.90;;;;;;4966643;28;20046;-75
2022/08/22 05:04:24;;;;;;;17.35;15.95;;;10.50;99.90;;;;;;4961769;28;20171;-76
2022/08/22 05:07:15;;;;;;;19.20;17.73;;;10.50;99.90;;;;;;4970455;28;20737;-74
2022/08/22 05:09:47;;;;;;;19.25;17.42;;;10.70;99.90;;;;;;4976170;28;20046;-75
2022/08/22 05:12:21;;;;;;;20.48;18.73;;;10.70;99.90;;;;;;4971215;28;20043;-76
2022/08/22 05:14:53;;;;;;;19.48;17.80;;;10.70;99.90;;;;;;4973695;28;20038;-76
2022/08/22 05:17:24;;;;;;;19.60;18.00;;;10.80;99.90;;;;;;4968802;28;20054;-76
2022/08/22 05:19:55;;;;;;;18.95;17.33;;;10.90;99.90;;;;;;4965127;28;20051;-74
2022/08/22 05:22:38;;;;;;;18.20;16.77;;;10.80;99.90;;;;;;4973373;28;20054;-75
2022/08/22 05:25:10;;;;;;;18.60;17.20;;;10.80;99.90;;;;;;4972307;28;20078;-77
2022/08/22 05:28:13;;;;;;;17.83;16.48;;;10.90;99.90;;;;;;4950663;28;20433;-75
2022/08/22 05:30:44;;;;;;;18.45;17.25;;;10.80;99.90;;;;;;4952281;28;20046;-75
2022/08/22 05:33:14;;;;;;;18.77;17.52;;;10.80;99.90;;;;;;4952259;28;20043;-75
2022/08/22 05:35:56;;;;;;;18.40;17.10;;;10.90;99.90;;;;;;4968141;28;20593;-75
2022/08/22 05:38:30;;;;;;;19.40;17.73;;;10.90;99.90;;;;;;4980419;28;20038;-75
2022/08/22 05:41:06;;;;;;;17.77;16.48;;;11.00;99.90;;;;;;4976212;28;20046;-78
2022/08/22 05:43:38;;;;;;;17.92;16.63;;;11.20;99.90;;;;;;4969318;28;20600;-75
2022/08/22 05:46:08;;;;;;;16.70;15.35;;;11.30;99.90;;;;;;4969696;28;20046;-76
2022/08/22 05:48:44;;;;;;;17.95;16.60;;;11.50;99.90;;;;;;4980949;28;20661;-76
2022/08/22 05:51:23;;;;;;;16.98;15.38;;;11.50;99.90;;;;;;4975011;28;20141;-76
2022/08/22 05:54:08;;;;;;;17.23;15.80;;;11.60;99.90;;;;;;4979421;28;20133;-75
2022/08/22 05:56:40;;;;;;;16.50;15.03;;;11.70;99.90;;;;;;4964829;28;20043;-75
2022/08/22 05:59:31;;;;;;;18.15;16.50;;;11.80;99.90;;;;;;4958777;28;20742;-75
2022/08/22 06:02:05;;;;;;;17.20;15.95;;;11.90;99.90;;;;;;4961000;28;20884;-75
2022/08/22 06:04:44;;;;;;;17.08;15.85;;;12.00;99.90;;;;;;4962954;28;20066;-76
2022/08/22 06:07:17;;;;;;;17.50;15.98;;;12.10;99.90;;;;;;4962154;28;20043;-76
2022/08/22 06:09:47;;;;;;;17.60;16.10;;;12.20;99.90;;;;;;4967098;28;20140;-77
2022/08/22 06:12:28;;;;;;;18.48;16.63;;;12.30;99.90;;;;;;4959043;28;20081;-75
2022/08/22 06:15:03;;;;;;;17.67;16.13;;;12.40;99.90;;;;;;4958759;28;20468;-76
2022/08/22 06:17:53;;;;;;;16.50;15.32;;;12.70;99.90;;;;;;4970355;28;20070;-75
2022/08/22 06:20:44;;;;;;;16.88;15.25;;;13.00;99.90;;;;;;4974528;28;20236;-76
2022/08/22 06:23:20;;;;;;;17.45;16.10;;;13.20;99.90;;;;;;4967181;28;20102;-79
2022/08/22 06:25:47;;;;;;;16.38;15.07;;;13.20;99.90;;;;;;4976270;28;20046;-75
2022/08/22 06:28:24;;;;;;;16.23;14.98;;;13.30;99.90;;;;;;4969165;28;20070;-79
2022/08/22 06:30:54;;;;;;;16.85;15.63;;;13.40;99.90;;;;;;4975535;28;20069;-77
2022/08/22 06:33:25;;;;;;;16.85;15.35;;;13.50;99.90;;;;;;4976795;28;20066;-78
2022/08/22 06:36:32;;;;;;;16.88;15.45;;;13.60;99.90;;;;;;4974103;28;20054;-78
2022/08/22 06:38:59;;;;;;;15.82;14.60;;;13.80;99.90;;;;;;4960174;28;20051;-76
2022/08/22 06:41:30;;;;;;;17.15;15.95;;;14.10;99.90;;;;;;4962957;28;20043;-78
2022/08/22 06:43:58;;;;;;;19.15;17.50;;;14.50;99.90;;;;;;4949384;28;20059;-77
2022/08/22 06:46:28;;;;;;;22.25;20.15;;;15.00;99.90;;;;;;4960193;28;20137;-76
2022/08/22 06:48:58;;;;;;;22.63;21.02;;;15.60;99.90;;;;;;4958377;28;20050;-77
2022/08/22 06:51:27;;;;;;;23.23;21.48;;;16.40;99.90;;;;;;4963443;28;20073;-76
2022/08/22 06:54:00;;;;;;;23.05;21.45;;;17.10;99.90;;;;;;4947326;28;20046;-79
2022/08/22 06:56:39;;;;;;;22.58;21.08;;;17.80;99.90;;;;;;4964031;28;20042;-76
2022/08/22 06:59:15;;;;;;;22.70;21.02;;;18.50;99.90;;;;;;4964469;28;20066;-74
2022/08/22 07:02:07;;;;;;;22.63;20.98;;;19.10;99.90;;;;;;4962247;28;20093;-77
2022/08/22 07:04:35;;;;;;;21.77;20.33;;;19.80;99.90;;;;;;4962295;28;20073;-76
2022/08/22 07:07:02;;;;;;;21.92;20.52;;;20.10;99.90;;;;;;4960739;28;20097;-77
2022/08/22 07:09:39;;;;;;;21.75;20.25;;;20.50;99.90;;;;;;4961955;28;20497;-77
2022/08/22 07:12:18;;;;;;;21.83;20.15;;;20.80;99.90;;;;;;4959790;28;20059;-77
2022/08/22 07:14:51;;;;;;;23.33;21.88;;;21.10;99.90;;;;;;4969405;28;20096;-77
2022/08/22 07:17:28;;;;;;;23.52;21.65;;;21.40;99.90;;;;;;4963886;28;20584;-76
2022/08/22 07:20:23;;;;;;;22.75;21.23;;;21.50;99.90;;;;;;4966468;28;20047;-77
2022/08/22 07:22:53;;;;;;;22.92;21.05;;;21.90;99.90;;;;;;4960467;28;20628;-76
2022/08/22 07:25:23;;;;;;;24.05;22.25;;;22.40;99.90;;;;;;4963700;28;20175;-77
2022/08/22 07:28:16;;;;;;;23.73;21.90;;;22.70;99.90;;;;;;4978734;28;20520;-77
2022/08/22 07:31:12;;;;;;;23.15;21.45;;;23.00;99.90;;;;;;4983787;28;20054;-77
2022/08/22 07:33:45;;;;;;;;;;;23.20;99.90;;;;;;4978296;28;20743;-75
2022/08/22 07:36:19;;;;;;;23.45;21.85;;;23.10;99.90;;;;;;4978937;28;19929;-77
2022/08/22 07:39:17;;;;;;;23.42;21.77;;;23.00;99.90;;;;;;4979583;28;20671;-76
2022/08/22 07:42:14;;;;;;;24.50;22.73;;;22.60;99.90;;;;;;4962776;28;20049;-76
2022/08/22 07:45:03;;;;;;;25.52;23.92;;;22.60;99.90;;;;;;4968469;28;20093;-76
2022/08/22 07:48:10;;;;;;;25.20;23.50;;;22.10;99.90;;;;;;4970175;28;20145;-77
2022/08/22 07:50:48;;;;;;;24.58;23.08;;;22.40;99.90;;;;;;4959836;28;20069;-74
2022/08/22 07:53:38;;;;;;;24.48;23.00;;;22.60;99.90;;;;;;4990507;28;20043;-77
2022/08/22 07:56:15;;;;;;;24.38;22.77;;;22.80;99.90;;;;;;4961520;28;20053;-78
2022/08/22 07:58:45;;;;;;;24.77;23.17;;;22.70;99.90;;;;;;4989243;28;20487;-75
2022/08/22 08:01:17;;;;;;;24.02;22.38;;;22.40;99.90;;;;;;4982851;28;20074;-79
2022/08/22 08:04:04;;;;;;;24.25;22.65;;;22.50;99.90;;;;;;4981823;28;20039;-76
2022/08/22 08:06:32;;;;;;;24.20;22.40;;;22.50;99.90;;;;;;4951844;28;20042;-76
2022/08/22 08:09:00;;;;;;;25.52;23.70;;;22.20;99.90;;;;;;4976621;28;20051;-76
2022/08/22 08:11:33;;;;;;;25.23;23.42;;;21.80;99.90;;;;;;4968838;28;20105;-76
2022/08/22 08:14:04;;;;;;;24.27;22.80;;;21.70;99.90;;;;;;4962148;28;20131;-78
2022/08/22 08:16:39;;;;;;;23.20;21.80;;;21.80;99.90;;;;;;4955499;28;20989;-76
2022/08/22 08:19:09;;;;;;;24.25;22.50;;;22.50;99.90;;;;;;4958824;28;20043;-77
2022/08/22 08:21:45;;;;;;;25.38;23.52;;;22.30;99.90;;;;;;4959055;28;20073;-76
2022/08/22 08:24:17;;;;;;;25.65;23.70;;;22.20;99.90;;;;;;4962551;28;20066;-76
2022/08/22 08:29:42;;;;;;;24.42;22.95;;;22.90;99.90;;;;;;4964016;28;21040;-77
2022/08/22 08:32:13;;;;;;;25.60;24.08;;;22.90;99.90;;;;;;4959473;28;20046;-72
2022/08/22 08:34:42;;;;;;;24.67;23.27;;;23.30;99.90;;;;;;4958334;28;20560;-71
2022/08/22 08:37:30;;;;;;;24.63;23.23;;;23.40;99.90;;;;;;4956281;28;20506;-71
2022/08/22 08:40:00;;;;;;;82.25;38.50;;;23.50;99.90;;;;;;4956848;28;20082;-72
2022/08/22 08:45:54;;;;;;;25.13;23.17;;;24.30;99.90;;;;;;4957991;28;20042;-72
2022/08/22 08:48:58;;;;;;;25.30;23.80;;;23.50;99.90;;;;;;4958292;28;20054;-72
2022/08/22 08:52:01;;;;;;;25.38;23.73;;;23.50;99.90;;;;;;4957156;28;20074;-70
2022/08/22 08:54:53;;;;;;;25.77;24.17;;;24.00;99.90;;;;;;4969625;23;20039;-78
2022/08/22 08:57:42;;;;;;;26.17;24.58;;;24.80;99.90;;;;;;4948530;28;20101;-76
2022/08/22 09:00:14;;;;;;;25.63;24.05;;;25.30;99.90;;;;;;4970978;28;20106;-74
2022/08/22 09:03:13;;;;;;;26.52;24.73;;;25.60;99.90;;;;;;4976888;28;20145;-77
2022/08/22 09:06:05;;;;;;;25.85;24.25;;;24.20;99.90;;;;;;4976871;28;20101;-77
2022/08/22 09:08:52;;;;;;;26.55;24.77;;;24.30;99.90;;;;;;4976455;28;20116;-77
2022/08/22 09:11:50;;;;;;;26.25;24.55;;;24.60;99.90;;;;;;4977263;28;20508;-77
2022/08/22 09:14:34;;;;;;;26.23;24.52;;;24.10;99.90;;;;;;4976469;28;20078;-78
2022/08/22 09:17:20;;;;;;;26.17;24.52;;;24.90;99.90;;;;;;4979191;28;20650;-75
2022/08/22 09:20:11;;;;;;;27.90;26.05;;;25.00;99.90;;;;;;4978737;28;20046;-76
2022/08/22 09:23:11;;;;;;;27.45;25.65;;;25.60;99.90;;;;;;4977594;28;20121;-75
2022/08/22 09:25:50;;;;;;;27.27;25.40;;;26.00;99.90;;;;;;4978733;28;20066;-77
2022/08/22 09:28:40;;;;;;;27.08;25.08;;;26.80;99.90;;;;;;4976396;28;20057;-76
2022/08/22 09:31:28;;;;;;;26.27;24.40;;;26.90;99.90;;;;;;4975811;28;20046;-76
2022/08/22 09:34:21;;;;;;;28.33;26.20;;;26.90;99.90;;;;;;4975990;28;20073;-76
2022/08/22 09:37:15;;;;;;;27.65;25.95;;;27.20;99.90;;;;;;4980038;28;20141;-77
2022/08/22 09:39:58;;;;;;;28.17;26.20;;;26.60;99.90;;;;;;4976973;28;20097;-75
2022/08/22 09:42:57;;;;;;;28.90;26.70;;;26.30;99.90;;;;;;4977321;28;20038;-76
2022/08/22 09:45:48;;;;;;;27.73;25.63;;;26.80;99.90;;;;;;4979377;28;20074;-76
2022/08/22 09:48:42;;;;;;;28.27;26.40;;;26.90;99.90;;;;;;4975791;28;20062;-76
2022/08/22 09:51:13;;;;;;;27.75;25.80;;;26.60;99.90;;;;;;4991013;28;20040;-75
2022/08/22 09:54:10;;;;;;;27.83;26.05;;;27.00;99.90;;;;;;4973902;28;20077;-75
2022/08/22 09:57:01;;;;;;;28.00;26.02;;;26.90;99.90;;;;;;4959629;28;20046;-75
2022/08/22 09:59:46;;;;;;;27.15;25.42;;;27.10;99.90;;;;;;4964742;28;20106;-76
2022/08/22 10:02:36;;;;;;;26.02;24.27;;;27.30;99.90;;;;;;4966935;28;20097;-75
2022/08/22 10:05:25;;;;;;;27.27;25.27;;;27.50;99.90;;;;;;4963183;28;20406;-75
2022/08/22 10:08:35;;;;;;;26.95;25.25;;;27.40;99.90;;;;;;4961123;28;20502;-75
2022/08/22 10:11:34;;;;;;;27.15;25.42;;;27.10;99.90;;;;;;4957011;28;20136;-76
2022/08/22 10:14:19;;;;;;;28.40;26.50;;;26.80;99.90;;;;;;4974125;28;20066;-75
2022/08/22 10:17:06;;;;;;;27.85;25.92;;;26.80;99.90;;;;;;4972064;28;20094;-75
2022/08/22 10:19:55;;;;;;;;;;;26.80;99.90;;;;;;4959697;28;20137;-75
2022/08/22 10:22:46;;;;;;;28.60;26.50;;;26.90;99.90;;;;;;4974144;28;19930;-75
2022/08/22 10:25:15;;;;;;;28.17;26.35;;;27.00;99.90;;;;;;4976810;28;20436;-75
2022/08/22 10:27:55;;;;;;;27.80;25.90;;;26.80;99.90;;;;;;4977045;28;20589;-75
2022/08/22 10:30:35;;;;;;;28.50;26.60;;;26.70;99.90;;;;;;4981947;28;20496;-75
2022/08/22 10:33:07;;;;;;;27.60;25.83;;;26.30;99.90;;;;;;4978084;28;20050;-75
2022/08/22 10:35:50;;;;;;;29.23;27.20;;;26.00;99.90;;;;;;4983541;28;20096;-75
2022/08/22 10:38:30;;;;;;;29.17;27.20;;;26.20;99.90;;;;;;4979017;28;21697;-75
2022/08/22 10:41:09;;;;;;;28.95;27.10;;;26.60;99.90;;;;;;4983337;28;20057;-75
2022/08/22 10:43:50;;;;;;;27.77;25.90;;;26.80;99.90;;;;;;4978033;28;20049;-76
2022/08/22 10:46:42;;;;;;;28.98;26.85;;;26.90;99.90;;;;;;4974350;28;20599;-75
2022/08/22 10:49:35;;;;;;;28.70;26.92;;;27.80;99.90;;;;;;4981385;28;20051;-75
2022/08/22 10:52:09;;;;;;;28.65;26.65;;;28.00;99.90;;;;;;4976343;28;20468;-78
2022/08/22 10:54:56;;;;;;;29.45;27.40;;;27.70;99.90;;;;;;4974352;28;20050;-75
2022/08/22 10:57:55;;;;;;;29.25;27.30;;;27.00;99.90;;;;;;4978874;28;20054;-75
2022/08/22 11:00:49;;;;;;;28.73;26.83;;;26.90;99.90;;;;;;4973661;28;20116;-75
2022/08/22 11:03:33;;;;;;;28.98;26.85;;;27.50;99.90;;;;;;4963220;28;20050;-75
2022/08/22 11:06:05;;;;;;;29.92;27.83;;;27.80;99.90;;;;;;4980109;28;20129;-75
2022/08/22 11:08:44;;;;;;;30.52;28.63;;;27.70;99.60;;;;;;4976055;28;20096;-75
2022/08/22 11:11:44;;;;;;;29.98;28.08;;;27.70;99.90;;;;;;4974292;28;20046;-75
2022/08/22 11:15:00;;;;;;;29.85;27.73;;;27.20;99.90;;;;;;4977270;28;20051;-75
2022/08/22 11:17:49;;;;;;;29.35;27.55;;;26.80;99.80;;;;;;4953090;28;20063;-74
2022/08/22 11:20:58;;;;;;;30.63;28.55;;;26.70;99.90;;;;;;4960760;28;20050;-75
2022/08/22 11:24:06;;;;;;;30.27;28.35;;;26.80;99.90;;;;;;4933858;28;20058;-75
2022/08/22 11:26:47;;;;;;;29.02;26.95;;;26.70;99.90;;;;;;4912368;29;20178;-75
2022/08/22 11:29:45;;;;;;;30.13;27.83;;;27.00;99.90;;;;;;4949883;28;20081;-75
2022/08/22 11:32:25;;;;;;;29.80;28.00;;;26.80;99.90;;;;;;4951088;28;20064;-75
2022/08/22 11:34:59;;;;;;;29.33;27.25;;;26.90;99.90;;;;;;4958362;28;20073;-75
2022/08/22 11:37:55;;;;;;;31.75;29.25;;;27.00;99.90;;;;;;4977334;28;20073;-75
2022/08/22 11:40:46;;;;;;;31.02;28.83;;;27.20;99.70;;;;;;4992331;28;20051;-75
2022/08/22 11:43:32;;;;;;;30.42;28.25;;;26.80;99.70;;;;;;4992408;28;20038;-75
2022/08/22 11:46:17;;;;;;;31.13;28.95;;;27.50;99.00;;;;;;4972874;28;20668;-75
2022/08/22 11:49:05;;;;;;;31.02;28.98;;;27.60;98.40;;;;;;4974390;28;20046;-75
2022/08/22 11:51:43;;;;;;;30.38;28.38;;;27.90;97.60;;;;;;4974462;28;20058;-77
2022/08/22 11:54:36;;;;;;;29.45;27.35;;;28.20;97.80;;;;;;4975735;28;20047;-75
2022/08/22 11:57:12;;;;;;;30.52;28.38;;;28.30;98.40;;;;;;4973355;28;20048;-76
2022/08/22 11:59:44;;;;;;;30.58;28.40;;;27.70;97.90;;;;;;4975015;28;20050;-75
2022/08/22 12:02:20;;;;;;;29.30;27.33;;;27.60;99.00;;;;;;4958634;28;20049;-75
2022/08/22 12:04:54;;;;;;;30.67;28.75;;;27.40;99.90;;;;;;4956397;28;20061;-76
2022/08/22 12:07:27;;;;;;;29.58;27.42;;;27.70;97.50;;;;;;4974000;28;20046;-75
2022/08/22 12:10:03;;;;;;;29.83;27.83;;;27.70;98.80;;;;;;4958021;28;20042;-78
2022/08/22 12:12:54;;;;;;;28.95;27.02;;;27.80;97.90;;;;;;4959860;28;20039;-75
2022/08/22 12:15:23;;;;;;;30.52;28.50;;;28.10;97.60;;;;;;4958151;28;20050;-75
2022/08/22 12:18:19;;;;;;;32.28;30.10;;;28.00;96.70;;;;;;4962539;28;20066;-75
2022/08/22 12:21:20;;;;;;;31.40;29.30;;;27.70;97.00;;;;;;4957078;28;20038;-75
2022/08/22 12:24:14;;;;;;;32.00;29.70;;;27.20;97.20;;;;;;4959730;28;20263;-75
2022/08/22 12:26:58;;;;;;;31.70;29.48;;;27.50;97.50;;;;;;4973377;28;20150;-75
2022/08/22 12:29:44;;;;;;;31.40;29.33;;;27.90;97.40;;;;;;4957753;28;20097;-75
2022/08/22 12:32:32;;;;;;;31.23;29.23;;;28.40;97.90;;;;;;4953939;28;20054;-75
2022/08/22 12:35:22;;;;;;;33.08;30.83;;;28.80;97.60;;;;;;4957155;28;20046;-75
2022/08/22 12:38:01;;;;;;;33.10;30.85;;;28.00;97.20;;;;;;4957478;28;20122;-75
2022/08/22 12:41:27;;;;;;;32.92;30.80;;;27.60;98.10;;;;;;4973756;28;20043;-75
2022/08/22 12:44:04;;;;;;;32.75;30.48;;;27.30;97.70;;;;;;4955299;28;20081;-75
2022/08/22 12:47:21;;;;;;;32.17;29.88;;;27.20;98.00;;;;;;4957320;28;20046;-75
2022/08/22 12:50:22;;;;;;;33.22;31.02;;;27.10;97.60;;;;;;4898819;29;20055;-75
2022/08/22 12:53:07;;;;;;;33.35;31.25;;;27.10;97.80;;;;;;4978813;28;20138;-75
2022/08/22 12:55:45;;;;;;;31.08;29.17;;;27.10;96.80;;;;;;4976889;28;20497;-76
2022/08/22 12:58:36;;;;;;;32.20;30.20;;;26.40;98.30;;;;;;4974923;28;20039;-75
2022/08/22 13:01:06;;;;;;;31.15;29.25;;;26.60;97.90;;;;;;4972002;28;20265;-74
2022/08/22 13:03:41;;;;;;;29.85;27.85;;;26.80;97.40;;;;;;4977395;28;20046;-75
2022/08/22 13:06:33;;;;;;;31.58;29.45;;;26.70;97.00;;;;;;4971789;28;20081;-75
2022/08/22 13:09:09;;;;;;;32.17;29.88;;;26.70;97.30;;;;;;4973136;28;20067;-75
2022/08/22 13:11:40;;;;;;;31.50;29.13;;;27.00;96.60;;;;;;4979125;28;20070;-75
2022/08/22 13:14:08;;;;;;;30.35;28.33;;;27.30;97.40;;;;;;4968446;28;20054;-75
2022/08/22 13:16:49;;;;;;;31.15;29.02;;;27.70;96.70;;;;;;4972181;28;20594;-77
2022/08/22 13:19:24;;;;;;;31.58;29.48;;;27.90;96.40;;;;;;4974343;28;20046;-75
2022/08/22 13:21:59;;;;;;;33.03;30.88;;;27.80;96.00;;;;;;4959160;28;20600;-76
2022/08/22 13:24:43;;;;;;;31.30;29.33;;;27.60;97.30;;;;;;4957067;28;20398;-74
2022/08/22 13:27:31;;;;;;;32.50;30.20;;;28.00;95.40;;;;;;4956560;28;20767;-75
2022/08/22 13:30:01;;;;;;;31.77;29.67;;;28.40;94.60;;;;;;4959502;28;20414;-75
2022/08/22 13:32:44;;;;;;;31.38;29.50;;;28.60;94.40;;;;;;4959261;28;20138;-75
2022/08/22 13:35:44;;;;;;;30.45;28.45;;;28.70;96.10;;;;;;4956878;28;20134;-75
2022/08/22 13:38:21;;;;;;;;;;;29.00;95.80;;;;;;4948773;28;20062;-76
2022/08/22 13:40:54;;;;;;;31.15;29.17;;;29.20;96.20;;;;;;4960851;28;19922;-78
2022/08/22 13:43:28;;;;;;;31.60;29.50;;;29.70;95.20;;;;;;4954376;28;20525;-75
2022/08/22 13:46:01;;;;;;;33.22;31.05;;;30.00;95.70;;;;;;4956575;28;21169;-76
2022/08/22 13:48:47;;;;;;;32.97;30.75;;;29.50;93.90;;;;;;4954088;28;20543;-76
2022/08/22 13:51:32;;;;;;;31.65;29.60;;;29.50;94.90;;;;;;4956513;28;20049;-75
2022/08/22 13:54:08;;;;;;;32.45;30.45;;;29.70;95.40;;;;;;4956615;28;20046;-78
2022/08/22 13:56:53;;;;;;;32.78;30.25;;;29.50;93.20;;;;;;4984376;28;20239;-75
2022/08/22 13:59:27;;;;;;;32.90;30.60;;;28.70;95.10;;;;;;4991400;28;20409;-75
2022/08/22 14:02:38;;;;;;;31.33;29.35;;;28.70;93.90;;;;;;4955002;28;20083;-75